Canadian Empress — VX6095 — position and weather

sailwx.info

Track history (hours):
 
Tides and Currents Weather Stations Pressure Air Temp Water Temp Dewpoint Dewpoint Depression Visibility Wind Speed Wind Dir Waves Ship Positions

Canadian Empress

Last reported at 2014-Oct-01 18:33 UTC. Time now 2014-Oct-01 22:19 UTC.
Position N 45°30' W 073°33'.

Length 30 m.

Type: Passenger vessel. MMSI: 314954012.

Date/timePositionNaut miles runAvg speedWind from/ knotsBaromVisibWave heightAir tempDewpointWater temp
2014-Oct-01 18:33N 45°30' W 073°33'5 4.8
2014-Oct-01 17:33N 45°34' W 073°30'5 4.8
2014-Oct-01 16:33N 45°30' W 073°31'5 5.2
2014-Oct-01 15:33N 45°25' W 073°32'5 4.9
2014-Oct-01 14:31N 45°24' W 073°39'8 8.2
2014-Oct-01 13:33N 45°22' W 073°50'6 5.4
2014-Oct-01 12:32N 45°18' W 073°56'6 4.9
2014-Oct-01 11:23N 45°14' W 074°00'6 7.5
2014-Oct-01 10:33N 45°14' W 074°09'2 0.2
2014-Sep-30 22:14N 45°15' W 074°12'7 9.1
2014-Sep-30 21:28N 45°11' W 074°19'  
2014-Sep-28 00:09N 44°15' W 076°18'610.3
2014-Sep-27 23:33N 44°13' W 076°27'1 1.4
2014-Sep-27 22:33N 44°14' W 076°29'0 0.0
2014-Sep-27 21:33N 44°14' W 076°29'1 0.4
2014-Sep-27 17:33N 44°14' W 076°27'7 7.1
2014-Sep-27 16:33N 44°17' W 076°18'  
2014-Sep-24 21:33N 45°14' W 074°15'9 8.6
2014-Sep-24 20:30N 45°14' W 074°02'6 6.4
2014-Sep-24 19:31N 45°18' W 073°56'1 0.9
2014-Sep-24 18:33N 45°19' W 073°55'1 1.5
2014-Sep-24 17:33N 45°20' W 073°54'9 9.0
2014-Sep-24 16:33N 45°25' W 073°44'1 1.4
2014-Sep-24 15:33N 45°26' W 073°42'0 0.0
2014-Sep-24 04:33N 45°26' W 073°42'7 6.7
2014-Sep-24 03:33N 45°22' W 073°50'6 5.7
2014-Sep-24 02:33N 45°18' W 073°55'1 0.7
2014-Sep-24 01:34N 45°18' W 073°56'0 0.5
2014-Sep-24 00:33N 45°17' W 073°56'7 6.4
2014-Sep-23 23:26N 45°13' W 074°05'910.4
2014-Sep-23 22:34N 45°13' W 074°18'103 2.2
2014-Sep-22 00:31N 44°15' W 076°18'8 8.5
2014-Sep-21 23:34N 44°13' W 076°29'1 0.2
2014-Sep-21 18:34N 44°14' W 076°29'  
Track history (hours):
 
Tides and Currents Weather Stations Pressure Air Temp Water Temp Dewpoint Dewpoint Depression Visibility Wind Speed Wind Dir Waves Ship Positions

Canadian Empress

Last reported at 2014-Oct-01 18:33 UTC. Time now 2014-Oct-01 22:19 UTC.
Position N 45°30' W 073°33'.

Length 30 m.

Type: Passenger vessel. MMSI: 314954012.

Date/timePositionNaut miles runAvg speedWind from/ knotsBaromVisibWave heightAir tempDewpointWater temp
2014-Oct-01 18:33N 45°30' W 073°33'5 4.8
2014-Oct-01 17:33N 45°34' W 073°30'5 4.8
2014-Oct-01 16:33N 45°30' W 073°31'5 5.2
2014-Oct-01 15:33N 45°25' W 073°32'5 4.9
2014-Oct-01 14:31N 45°24' W 073°39'8 8.2
2014-Oct-01 13:33N 45°22' W 073°50'6 5.4
2014-Oct-01 12:32N 45°18' W 073°56'6 4.9
2014-Oct-01 11:23N 45°14' W 074°00'6 7.5
2014-Oct-01 10:33N 45°14' W 074°09'2 0.2
2014-Sep-30 22:14N 45°15' W 074°12'7 9.1
2014-Sep-30 21:28N 45°11' W 074°19'  
2014-Sep-28 00:09N 44°15' W 076°18'610.3
2014-Sep-27 23:33N 44°13' W 076°27'1 1.4
2014-Sep-27 22:33N 44°14' W 076°29'0 0.0
2014-Sep-27 21:33N 44°14' W 076°29'1 0.4
2014-Sep-27 17:33N 44°14' W 076°27'7 7.1
2014-Sep-27 16:33N 44°17' W 076°18'  
2014-Sep-24 21:33N 45°14' W 074°15'9 8.6
2014-Sep-24 20:30N 45°14' W 074°02'6 6.4
2014-Sep-24 19:31N 45°18' W 073°56'1 0.9
2014-Sep-24 18:33N 45°19' W 073°55'1 1.5
2014-Sep-24 17:33N 45°20' W 073°54'9 9.0
2014-Sep-24 16:33N 45°25' W 073°44'1 1.4
2014-Sep-24 15:33N 45°26' W 073°42'0 0.0
2014-Sep-24 04:33N 45°26' W 073°42'7 6.7
2014-Sep-24 03:33N 45°22' W 073°50'6 5.7
2014-Sep-24 02:33N 45°18' W 073°55'1 0.7
2014-Sep-24 01:34N 45°18' W 073°56'0 0.5
2014-Sep-24 00:33N 45°17' W 073°56'7 6.4
2014-Sep-23 23:26N 45°13' W 074°05'910.4
2014-Sep-23 22:34N 45°13' W 074°18'103 2.2
2014-Sep-22 00:31N 44°15' W 076°18'8 8.5
2014-Sep-21 23:34N 44°13' W 076°29'1 0.2
2014-Sep-21 18:34N 44°14' W 076°29'  

Dump ship's entire track history